createdAt,value
2022-08-17T00:01:22.508Z,21.50
2022-08-17T00:03:53.437Z,21.50
2022-08-17T00:06:21.585Z,21.50
2022-08-17T00:08:56.010Z,21.60
2022-08-17T00:11:24.470Z,21.60
2022-08-17T00:13:52.597Z,21.60
2022-08-17T00:16:55.525Z,21.60
2022-08-17T00:19:12.604Z,21.60
2022-08-17T00:21:57.922Z,21.60
2022-08-17T00:24:28.428Z,21.60
2022-08-17T00:26:55.269Z,21.50
2022-08-17T00:29:21.919Z,21.50
2022-08-17T00:31:49.123Z,21.50
2022-08-17T00:34:15.724Z,21.50
2022-08-17T00:36:42.287Z,21.50
2022-08-17T00:39:08.845Z,21.50
2022-08-17T00:41:35.826Z,21.50
2022-08-17T00:44:03.819Z,21.50
2022-08-17T00:46:36.329Z,21.50
2022-08-17T00:49:03.845Z,21.50
2022-08-17T00:51:38.420Z,21.40
2022-08-17T00:54:13.157Z,21.40
2022-08-17T00:56:44.705Z,21.40
2022-08-17T00:59:14.135Z,21.40
2022-08-17T01:01:41.198Z,21.40
2022-08-17T01:04:08.438Z,21.30
2022-08-17T01:06:35.125Z,21.30
2022-08-17T01:09:03.399Z,21.30
2022-08-17T01:11:30.587Z,21.30
2022-08-17T01:13:57.465Z,21.30
2022-08-17T01:16:26.171Z,21.30
2022-08-17T01:18:54.802Z,21.30
2022-08-17T01:21:26.650Z,21.30
2022-08-17T01:23:53.392Z,21.30
2022-08-17T01:26:20.285Z,21.20
2022-08-17T01:28:54.509Z,21.20
2022-08-17T01:31:23.597Z,21.20
2022-08-17T01:33:50.244Z,21.20
2022-08-17T01:36:17.012Z,21.20
2022-08-17T01:38:43.582Z,21.20
2022-08-17T01:41:12.686Z,21.20
2022-08-17T01:43:44.842Z,21.20
2022-08-17T01:46:14.678Z,21.10
2022-08-17T01:48:42.933Z,21.10
2022-08-17T01:51:09.604Z,21.10
2022-08-17T01:53:38.217Z,21.20
2022-08-17T01:56:09.702Z,21.20
2022-08-17T01:58:36.927Z,21.10
2022-08-17T02:01:04.998Z,21.20
2022-08-17T02:03:31.962Z,21.10
2022-08-17T02:05:58.566Z,21.10
2022-08-17T02:08:38.923Z,21.20
2022-08-17T02:11:11.952Z,21.20
2022-08-17T02:13:38.859Z,21.20
2022-08-17T02:16:05.810Z,21.30
2022-08-17T02:18:32.434Z,21.30
2022-08-17T02:20:59.516Z,21.30
2022-08-17T02:23:27.669Z,21.30
2022-08-17T02:25:55.942Z,21.30
2022-08-17T02:28:22.585Z,21.40
2022-08-17T02:30:59.829Z,21.40
2022-08-17T02:33:42.988Z,21.30
2022-08-17T02:36:11.310Z,21.40
2022-08-17T02:38:38.870Z,21.40
2022-08-17T02:41:05.562Z,21.40
2022-08-17T02:43:32.127Z,21.30
2022-08-17T02:45:58.889Z,21.40
2022-08-17T02:48:31.009Z,21.40
2022-08-17T02:50:58.811Z,21.40
2022-08-17T02:53:25.766Z,21.40
2022-08-17T02:55:52.800Z,21.40
2022-08-17T02:58:34.726Z,21.40
2022-08-17T03:01:03.289Z,21.40
2022-08-17T03:03:30.185Z,21.30
2022-08-17T03:05:56.892Z,21.30
2022-08-17T03:08:23.993Z,21.30
2022-08-17T03:10:50.672Z,21.40
2022-08-17T03:13:17.919Z,21.40
2022-08-17T03:15:46.110Z,21.40
2022-08-17T03:18:24.280Z,21.40
2022-08-17T03:20:56.580Z,21.40
2022-08-17T03:23:25.281Z,21.40
2022-08-17T03:25:53.626Z,21.40
2022-08-17T03:28:21.166Z,21.30
2022-08-17T03:30:47.802Z,21.40
2022-08-17T03:33:14.818Z,21.40
2022-08-17T03:35:41.823Z,21.30
2022-08-17T03:38:11.909Z,21.40
2022-08-17T03:40:56.909Z,21.40
2022-08-17T03:43:27.000Z,21.60
2022-08-17T03:46:28.611Z,21.70
2022-08-17T03:49:18.143Z,22.00
2022-08-17T03:52:03.532Z,22.30
2022-08-17T03:54:48.712Z,22.60
2022-08-17T03:57:16.292Z,22.80
2022-08-17T03:59:43.185Z,23.00
2022-08-17T04:02:15.597Z,23.10
2022-08-17T04:04:42.172Z,23.10
2022-08-17T04:07:09.141Z,23.10
2022-08-17T04:09:36.515Z,23.10
2022-08-17T04:12:04.997Z,23.10
2022-08-17T04:14:52.242Z,23.10
2022-08-17T04:17:21.912Z,23.00
2022-08-17T04:19:48.492Z,23.00
2022-08-17T04:22:30.803Z,23.00
2022-08-17T04:25:07.263Z,23.00
2022-08-17T04:27:34.075Z,23.00
2022-08-17T04:30:01.272Z,23.00
2022-08-17T04:32:59.455Z,23.00
2022-08-17T04:35:18.183Z,23.00
2022-08-17T04:37:45.054Z,22.90
2022-08-17T04:40:30.510Z,22.90
2022-08-17T04:43:04.808Z,22.80
2022-08-17T04:45:32.296Z,22.70
2022-08-17T04:48:00.045Z,22.70
2022-08-17T04:50:27.019Z,22.60
2022-08-17T04:52:53.935Z,22.60
2022-08-17T04:55:21.529Z,22.60
2022-08-17T04:57:48.111Z,22.60
2022-08-17T05:00:14.845Z,22.50
2022-08-17T05:02:49.949Z,22.50
2022-08-17T05:05:21.863Z,22.60
2022-08-17T05:07:51.181Z,22.60
2022-08-17T05:10:17.837Z,22.50
2022-08-17T05:12:44.612Z,22.50
2022-08-17T05:15:12.399Z,22.40
2022-08-17T05:17:39.002Z,22.40
2022-08-17T05:20:05.998Z,22.50
2022-08-17T05:22:32.614Z,22.50
2022-08-17T05:24:59.192Z,22.60
2022-08-17T05:27:29.803Z,22.60
2022-08-17T05:30:02.330Z,22.60
2022-08-17T05:32:38.804Z,22.70
2022-08-17T05:35:07.050Z,22.70
2022-08-17T05:37:33.656Z,22.70
2022-08-17T05:40:00.413Z,22.70
2022-08-17T05:42:27.144Z,22.70
2022-08-17T05:44:57.018Z,22.80
2022-08-17T05:47:23.954Z,22.80
2022-08-17T05:49:50.812Z,22.80
2022-08-17T05:52:23.535Z,22.80
2022-08-17T05:54:56.331Z,22.90
2022-08-17T05:57:32.729Z,23.00
2022-08-17T06:00:07.458Z,23.10
2022-08-17T06:02:47.953Z,23.10
2022-08-17T06:05:29.281Z,23.10
2022-08-17T06:08:00.256Z,22.90
2022-08-17T06:10:31.689Z,22.80
2022-08-17T06:12:58.282Z,22.80
2022-08-17T06:15:37.243Z,22.70
2022-08-17T06:18:05.991Z,22.70
2022-08-17T06:20:38.391Z,22.60
2022-08-17T06:23:07.763Z,22.40
2022-08-17T06:25:45.491Z,22.20
2022-08-17T06:28:14.691Z,22.20
2022-08-17T06:30:59.337Z,22.20
2022-08-17T06:33:32.505Z,22.10
2022-08-17T06:36:05.057Z,22.10
2022-08-17T06:38:44.111Z,22.10
2022-08-17T06:41:19.702Z,22.10
2022-08-17T06:43:50.510Z,22.20
2022-08-17T06:46:29.434Z,22.10
2022-08-17T06:49:11.578Z,22.00
2022-08-17T06:51:40.504Z,22.10
2022-08-17T06:54:11.507Z,22.10
2022-08-17T06:56:53.280Z,22.10
2022-08-17T06:59:55.301Z,22.10
2022-08-17T07:02:50.902Z,22.00
2022-08-17T07:05:20.520Z,22.00
2022-08-17T07:08:03.890Z,22.10
2022-08-17T07:10:38.932Z,22.20
2022-08-17T07:13:20.811Z,22.30
2022-08-17T07:15:52.749Z,22.30
2022-08-17T07:18:23.909Z,22.40
2022-08-17T07:20:54.446Z,22.30
2022-08-17T07:23:26.660Z,22.30
2022-08-17T07:25:53.442Z,22.20
2022-08-17T07:28:22.825Z,22.20
2022-08-17T07:30:54.026Z,22.20
2022-08-17T07:33:23.708Z,22.20
2022-08-17T07:35:50.887Z,22.20
2022-08-17T07:38:24.289Z,22.20
2022-08-17T07:41:02.049Z,22.00
2022-08-17T07:43:34.906Z,22.10
2022-08-17T07:46:23.589Z,22.00
2022-08-17T07:48:52.077Z,21.80
2022-08-17T07:51:21.062Z,21.70
2022-08-17T07:53:47.872Z,21.60
2022-08-17T07:56:34.437Z,21.60
2022-08-17T07:59:09.242Z,21.70
2022-08-17T08:01:39.555Z,21.80
2022-08-17T08:04:49.938Z,21.80
2022-08-17T08:07:16.322Z,21.90
2022-08-17T08:09:44.418Z,22.10
2022-08-17T08:12:24.574Z,22.50
2022-08-17T08:15:01.952Z,23.00
2022-08-17T08:17:31.929Z,23.70
2022-08-17T08:19:59.738Z,23.90
2022-08-17T08:22:34.962Z,24.10
2022-08-17T08:25:10.151Z,24.10
2022-08-17T08:27:45.606Z,24.10
2022-08-17T08:30:15.014Z,24.10
2022-08-17T08:32:53.973Z,24.00
2022-08-17T08:35:31.454Z,24.00
2022-08-17T08:38:17.083Z,24.10
2022-08-17T08:41:01.123Z,24.40
2022-08-17T08:43:30.922Z,24.50
2022-08-17T08:46:03.361Z,24.60
2022-08-17T08:48:53.101Z,24.60
2022-08-17T08:51:42.746Z,24.50
2022-08-17T08:54:17.805Z,24.40
2022-08-17T08:57:22.407Z,24.30
2022-08-17T08:59:54.134Z,24.20
2022-08-17T09:02:24.823Z,24.20
2022-08-17T09:05:13.516Z,24.10
2022-08-17T09:07:42.898Z,24.20
2022-08-17T09:10:20.118Z,24.40
2022-08-17T09:12:47.657Z,24.40
2022-08-17T09:15:27.547Z,24.50
2022-08-17T09:19:03.437Z,24.50
2022-08-17T09:21:14.181Z,24.60
2022-08-17T09:23:59.829Z,24.60
2022-08-17T09:26:31.215Z,24.70
2022-08-17T09:29:01.621Z,24.60
2022-08-17T09:31:41.873Z,24.60
2022-08-17T09:34:18.958Z,24.50
2022-08-17T09:36:50.619Z,24.40
2022-08-17T09:39:24.232Z,24.40
2022-08-17T09:42:14.201Z,24.50
2022-08-17T09:44:40.737Z,24.40
2022-08-17T09:47:22.594Z,24.40
2022-08-17T09:50:03.341Z,24.40
2022-08-17T09:52:30.864Z,24.30
2022-08-17T09:54:59.032Z,24.10
2022-08-17T09:57:35.032Z,24.10
2022-08-17T10:00:10.452Z,24.20
2022-08-17T10:02:37.184Z,24.20
2022-08-17T10:05:07.702Z,24.20
2022-08-17T10:07:41.827Z,24.30
2022-08-17T10:10:14.393Z,24.50
2022-08-17T10:12:54.178Z,24.60
2022-08-17T10:15:37.220Z,24.80
2022-08-17T10:18:22.478Z,25.00
2022-08-17T10:21:29.125Z,25.60
2022-08-17T10:24:35.893Z,26.10
2022-08-17T10:27:08.994Z,26.90
2022-08-17T10:29:48.984Z,27.30
2022-08-17T10:32:32.372Z,27.30
2022-08-17T10:34:59.487Z,27.20
2022-08-17T10:37:28.251Z,26.90
2022-08-17T10:40:07.351Z,26.50
2022-08-17T10:42:36.905Z,26.40
2022-08-17T10:45:26.811Z,26.20
2022-08-17T10:48:05.325Z,26.00
2022-08-17T10:50:48.075Z,26.00
2022-08-17T10:53:33.090Z,26.10
2022-08-17T10:56:12.196Z,26.10
2022-08-17T10:58:51.211Z,26.20
2022-08-17T11:01:18.114Z,26.30
2022-08-17T11:03:53.391Z,26.30
2022-08-17T11:06:26.037Z,26.30
2022-08-17T11:08:52.696Z,26.10
2022-08-17T11:11:43.304Z,26.10
2022-08-17T11:14:25.364Z,26.00
2022-08-17T11:17:11.299Z,26.00
2022-08-17T11:19:57.301Z,26.00
2022-08-17T11:22:48.852Z,26.10
2022-08-17T11:25:31.351Z,26.20
2022-08-17T11:28:06.178Z,26.30
2022-08-17T11:30:48.636Z,26.30
2022-08-17T11:33:38.115Z,26.40
2022-08-17T11:36:06.344Z,26.40
2022-08-17T11:38:52.465Z,26.50
2022-08-17T11:41:28.160Z,26.50
2022-08-17T11:44:15.312Z,26.50
2022-08-17T11:47:15.816Z,26.50
2022-08-17T11:50:15.617Z,26.30
2022-08-17T11:52:44.537Z,26.20
2022-08-17T11:55:37.477Z,26.00
2022-08-17T11:58:24.991Z,26.00
2022-08-17T12:00:59.412Z,25.90
2022-08-17T12:03:32.392Z,25.90
2022-08-17T12:06:17.017Z,25.90
2022-08-17T12:08:47.991Z,25.80
2022-08-17T12:12:01.687Z,25.80
2022-08-17T12:14:20.173Z,25.80
2022-08-17T12:16:59.368Z,25.70
2022-08-17T12:19:29.202Z,25.80
2022-08-17T12:22:02.056Z,25.90
2022-08-17T12:24:29.451Z,26.10
2022-08-17T12:26:58.355Z,26.00
2022-08-17T12:29:38.594Z,26.10
2022-08-17T12:32:07.074Z,26.10
2022-08-17T12:34:35.045Z,26.50
2022-08-17T12:37:03.096Z,26.80
2022-08-17T12:39:34.034Z,27.30
2022-08-17T12:42:02.571Z,27.70
2022-08-17T12:44:31.140Z,28.90
2022-08-17T12:47:01.768Z,30.20
2022-08-17T12:49:29.702Z,31.00
2022-08-17T12:52:05.795Z,30.90
2022-08-17T12:54:35.494Z,31.20
2022-08-17T12:57:07.036Z,30.90
2022-08-17T12:59:33.774Z,31.30
2022-08-17T13:02:00.665Z,32.30
2022-08-17T13:04:29.530Z,33.30
2022-08-17T13:06:59.807Z,33.70
2022-08-17T13:09:35.700Z,33.20
2022-08-17T13:12:07.925Z,32.50
2022-08-17T13:14:35.422Z,31.60
2022-08-17T13:17:08.358Z,31.80
2022-08-17T13:19:48.496Z,32.10
2022-08-17T13:22:15.121Z,32.50
2022-08-17T13:24:49.762Z,33.10
2022-08-17T13:27:20.058Z,33.50
2022-08-17T13:29:51.078Z,33.90
2022-08-17T13:32:33.432Z,34.20
2022-08-17T13:35:15.261Z,34.20
2022-08-17T13:37:57.327Z,34.70
2022-08-17T13:40:37.237Z,34.80
2022-08-17T13:43:04.166Z,34.60
2022-08-17T13:45:39.937Z,34.60
2022-08-17T13:48:11.957Z,34.40
2022-08-17T13:50:40.712Z,34.00
2022-08-17T13:53:22.037Z,34.00
2022-08-17T13:55:50.815Z,34.10
2022-08-17T13:58:26.396Z,34.00
2022-08-17T14:00:53.128Z,33.70
2022-08-17T14:03:20.343Z,33.50
2022-08-17T14:05:47.982Z,33.40
2022-08-17T14:08:15.411Z,32.90
2022-08-17T14:10:43.028Z,32.60
2022-08-17T14:13:09.613Z,31.90
2022-08-17T14:15:55.469Z,31.50
2022-08-17T14:18:55.525Z,31.20
2022-08-17T14:21:09.624Z,31.00
2022-08-17T14:23:37.127Z,30.70
2022-08-17T14:26:04.295Z,30.20
2022-08-17T14:28:30.869Z,30.10
2022-08-17T14:31:00.081Z,29.70
2022-08-17T14:33:27.713Z,29.50
2022-08-17T14:35:54.776Z,29.60
2022-08-17T14:38:21.379Z,29.50
2022-08-17T14:40:48.221Z,29.40
2022-08-17T14:43:15.871Z,29.30
2022-08-17T14:45:42.812Z,29.30
2022-08-17T14:48:09.537Z,29.20
2022-08-17T14:50:38.520Z,29.10
2022-08-17T14:53:06.423Z,29.00
2022-08-17T14:55:33.448Z,28.90
2022-08-17T14:58:00.041Z,28.80
2022-08-17T15:00:27.047Z,28.80
2022-08-17T15:02:54.814Z,28.80
2022-08-17T15:05:22.810Z,28.70
2022-08-17T15:07:49.559Z,28.60
2022-08-17T15:10:17.157Z,28.70
2022-08-17T15:12:44.045Z,28.80
2022-08-17T15:15:12.014Z,28.70
2022-08-17T15:17:45.254Z,28.60
2022-08-17T15:20:15.191Z,28.50
2022-08-17T15:22:42.542Z,28.50
2022-08-17T15:25:11.561Z,28.50
2022-08-17T15:27:38.606Z,28.50
2022-08-17T15:30:07.133Z,28.50
2022-08-17T15:32:35.973Z,28.50
2022-08-17T15:35:03.946Z,28.60
2022-08-17T15:37:32.199Z,28.70
2022-08-17T15:40:00.698Z,28.80
2022-08-17T15:42:27.852Z,28.90
2022-08-17T15:44:55.219Z,28.80
2022-08-17T15:47:22.132Z,28.80
2022-08-17T15:49:49.167Z,28.80
2022-08-17T15:52:25.883Z,28.70
2022-08-17T15:54:57.050Z,28.50
2022-08-17T15:57:24.749Z,28.60
2022-08-17T15:59:58.678Z,28.50
2022-08-17T16:03:15.345Z,28.60
2022-08-17T16:05:17.469Z,28.60
2022-08-17T16:07:46.669Z,28.50
2022-08-17T16:10:18.700Z,28.40
2022-08-17T16:12:46.337Z,28.40
2022-08-17T16:15:13.815Z,28.40
2022-08-17T16:17:41.512Z,28.40
2022-08-17T16:20:19.543Z,28.40
2022-08-17T16:22:48.019Z,28.30
2022-08-17T16:25:17.510Z,28.30
2022-08-17T16:27:44.644Z,28.40
2022-08-17T16:30:16.574Z,28.20
2022-08-17T16:32:44.155Z,28.20
2022-08-17T16:35:12.107Z,28.20
2022-08-17T16:37:40.240Z,28.20
2022-08-17T16:40:11.544Z,28.10
2022-08-17T16:42:39.569Z,28.10
2022-08-17T16:45:09.807Z,28.10
2022-08-17T16:47:36.783Z,28.00
2022-08-17T16:50:07.323Z,27.90
2022-08-17T16:52:34.046Z,27.90
2022-08-17T16:55:02.431Z,27.80
2022-08-17T16:57:29.802Z,27.80
2022-08-17T16:59:56.565Z,27.70
2022-08-17T17:02:24.904Z,27.70
2022-08-17T17:04:57.600Z,27.70
2022-08-17T17:07:50.940Z,27.70
2022-08-17T17:10:26.006Z,27.70
2022-08-17T17:13:03.544Z,27.70
2022-08-17T17:15:35.495Z,27.70
2022-08-17T17:18:07.070Z,27.50
2022-08-17T17:20:42.713Z,27.40
2022-08-17T17:23:14.423Z,27.40
2022-08-17T17:25:48.914Z,27.30
2022-08-17T17:28:18.697Z,27.30
2022-08-17T17:30:45.691Z,27.30
2022-08-17T17:33:19.739Z,27.30
2022-08-17T17:36:00.081Z,27.20
2022-08-17T17:38:33.224Z,27.20
2022-08-17T17:41:13.064Z,27.20
2022-08-17T17:43:41.051Z,27.10
2022-08-17T17:46:28.294Z,27.10
2022-08-17T17:48:56.881Z,27.10
2022-08-17T17:52:06.505Z,27.00
2022-08-17T17:54:18.678Z,26.90
2022-08-17T17:56:50.020Z,26.80
2022-08-17T17:59:26.597Z,26.70
2022-08-17T18:02:11.913Z,26.70
2022-08-17T18:04:42.250Z,26.50
2022-08-17T18:07:25.024Z,26.50
2022-08-17T18:10:04.430Z,26.40
2022-08-17T18:12:54.222Z,26.40
2022-08-17T18:15:35.436Z,26.30
2022-08-17T18:18:22.110Z,26.20
2022-08-17T18:20:53.645Z,26.10
2022-08-17T18:23:27.679Z,26.00
2022-08-17T18:25:55.512Z,25.90
2022-08-17T18:28:25.236Z,25.80
2022-08-17T18:31:06.702Z,25.80
2022-08-17T18:33:33.407Z,25.70
2022-08-17T18:36:01.516Z,25.60
2022-08-17T18:38:37.506Z,25.60
2022-08-17T18:41:26.217Z,25.50
2022-08-17T18:44:04.148Z,25.40
2022-08-17T18:46:35.143Z,25.40
2022-08-17T18:49:20.045Z,25.40
2022-08-17T18:51:46.636Z,25.30
2022-08-17T18:54:18.564Z,25.20
2022-08-17T18:56:52.042Z,25.20
2022-08-17T18:59:18.778Z,25.10
2022-08-17T19:02:05.040Z,25.00
2022-08-17T19:04:36.877Z,24.90
2022-08-17T19:07:05.827Z,24.80
2022-08-17T19:09:35.422Z,24.80
2022-08-17T19:12:03.933Z,24.80
2022-08-17T19:14:30.980Z,24.70
2022-08-17T19:17:04.592Z,24.70
2022-08-17T19:19:38.572Z,24.60
2022-08-17T19:22:11.031Z,24.60
2022-08-17T19:24:47.402Z,24.60
2022-08-17T19:27:17.834Z,24.50
2022-08-17T19:30:10.710Z,24.50
2022-08-17T19:32:38.046Z,24.50
2022-08-17T19:35:06.097Z,24.60
2022-08-17T19:37:35.852Z,24.60
2022-08-17T19:40:29.195Z,24.80
2022-08-17T19:43:14.807Z,24.90
2022-08-17T19:46:01.522Z,24.90
2022-08-17T19:48:46.696Z,24.90
2022-08-17T19:51:17.774Z,24.90
2022-08-17T19:54:04.420Z,24.80
2022-08-17T19:56:31.593Z,24.80
2022-08-17T19:59:12.677Z,24.70
2022-08-17T20:01:42.379Z,24.60
2022-08-17T20:04:32.370Z,24.50
2022-08-17T20:07:28.899Z,24.50
2022-08-17T20:09:55.573Z,24.40
2022-08-17T20:12:26.276Z,24.40
2022-08-17T20:14:59.070Z,24.40
2022-08-17T20:17:31.027Z,24.30
2022-08-17T20:20:04.958Z,24.30
2022-08-17T20:22:46.108Z,24.20
2022-08-17T20:25:35.674Z,24.20
2022-08-17T20:28:17.330Z,24.20
2022-08-17T20:30:45.019Z,24.20
2022-08-17T20:33:29.077Z,24.20
2022-08-17T20:36:05.072Z,24.10
2022-08-17T20:38:52.390Z,24.10
2022-08-17T20:41:22.355Z,24.10
2022-08-17T20:44:09.696Z,24.10
2022-08-17T20:46:36.234Z,24.10
2022-08-17T20:49:08.656Z,24.10
2022-08-17T20:51:40.254Z,24.00
2022-08-17T20:54:16.026Z,24.00
2022-08-17T20:56:43.300Z,24.00
2022-08-17T20:59:39.194Z,24.00
2022-08-17T21:02:18.410Z,23.90
2022-08-17T21:04:52.964Z,23.90
2022-08-17T21:07:41.055Z,23.90
2022-08-17T21:10:24.187Z,23.90
2022-08-17T21:12:58.409Z,23.80
2022-08-17T21:15:43.446Z,23.80
2022-08-17T21:18:10.034Z,23.70
2022-08-17T21:21:01.104Z,23.80
2022-08-17T21:23:40.256Z,23.80
2022-08-17T21:26:13.799Z,23.90
2022-08-17T21:29:01.136Z,24.00
2022-08-17T21:31:28.817Z,24.00
2022-08-17T21:34:14.864Z,24.00
2022-08-17T21:36:47.094Z,24.10
2022-08-17T21:39:15.875Z,24.10
2022-08-17T21:41:47.957Z,24.00
2022-08-17T21:44:17.788Z,24.00
2022-08-17T21:46:46.823Z,23.90
2022-08-17T21:49:16.719Z,23.90
2022-08-17T21:51:56.408Z,23.90
2022-08-17T21:54:31.314Z,23.80
2022-08-17T21:56:59.576Z,23.80
2022-08-17T21:59:35.565Z,23.80
2022-08-17T22:02:04.325Z,23.80
2022-08-17T22:04:32.503Z,23.70
2022-08-17T22:07:01.360Z,23.70
2022-08-17T22:09:27.935Z,23.70
2022-08-17T22:11:57.531Z,23.70
2022-08-17T22:14:27.488Z,23.70
2022-08-17T22:17:35.859Z,23.60
2022-08-17T22:20:14.225Z,23.60
2022-08-17T22:23:08.980Z,23.60
2022-08-17T22:25:37.249Z,23.60
2022-08-17T22:28:05.335Z,23.50
2022-08-17T22:30:39.754Z,23.50
2022-08-17T22:33:25.084Z,23.50
2022-08-17T22:36:07.731Z,23.50
2022-08-17T22:38:34.830Z,23.50
2022-08-17T22:41:22.535Z,23.50
2022-08-17T22:43:49.523Z,23.50
2022-08-17T22:46:20.803Z,23.50
2022-08-17T22:48:50.777Z,23.50
2022-08-17T22:51:19.146Z,23.50
2022-08-17T22:54:06.179Z,23.60
2022-08-17T22:56:51.749Z,23.60
2022-08-17T22:59:37.375Z,23.60
2022-08-17T23:02:12.514Z,23.60
2022-08-17T23:04:41.694Z,23.60
2022-08-17T23:07:08.374Z,23.60
2022-08-17T23:09:35.856Z,23.60
2022-08-17T23:12:05.500Z,23.60
2022-08-17T23:14:36.369Z,23.60
2022-08-17T23:17:03.418Z,23.50
2022-08-17T23:19:32.916Z,23.50
2022-08-17T23:22:01.035Z,23.50
2022-08-17T23:24:29.172Z,23.40
2022-08-17T23:26:57.365Z,23.40
2022-08-17T23:29:25.734Z,23.40
2022-08-17T23:31:52.509Z,23.40
2022-08-17T23:34:19.306Z,23.40
2022-08-17T23:36:50.598Z,23.30
2022-08-17T23:39:27.695Z,23.30
2022-08-17T23:41:56.214Z,23.20
2022-08-17T23:44:23.428Z,23.20
2022-08-17T23:46:51.284Z,23.10
2022-08-17T23:49:19.070Z,23.10
2022-08-17T23:51:46.374Z,23.00
2022-08-17T23:54:19.309Z,23.00
2022-08-17T23:56:46.864Z,23.10
2022-08-17T23:59:14.372Z,23.00
